Time;durP1;ratioP1;P1;durP2;ratioP2;P2;SDS_P1;SDS_P2;PMS_P1;PMS_P2;Temp;Humidity;BMP_temperature;BMP_pressure;BME280_temperature;BME280_humidity;BME280_pressure;Samples;Min_cycle;Max_cycle;Signal;HPM_P1;HPM_P2
2022/12/28 00:02:20;;;;;;;11.40;4.50;;;;;;;-143.48;92.52;118439.88;5053145;28;20017;-70
2022/12/28 00:04:46;;;;;;;12.57;4.30;;;;;;;-143.48;92.21;118439.88;5053293;28;20139;-70
2022/12/28 00:07:12;;;;;;;11.68;4.50;;;;;;;-143.48;92.19;118439.88;5053345;28;20086;-68
2022/12/28 00:09:37;;;;;;;16.58;4.60;;;;;;;-143.48;92.37;118439.88;5053333;28;20031;-69
2022/12/28 00:12:02;;;;;;;12.35;4.97;;;;;;;-143.48;92.37;118439.88;5053346;28;20112;-68
2022/12/28 00:14:28;;;;;;;12.52;4.45;;;;;;;-143.48;92.58;118439.88;5053183;28;20461;-70
2022/12/28 00:16:53;;;;;;;13.50;4.25;;;;;;;-143.48;92.45;118439.88;5052903;28;20020;-69
2022/12/28 00:19:18;;;;;;;12.30;4.88;;;;;;;-143.48;92.78;118439.88;5052866;28;20032;-69
2022/12/28 00:21:44;;;;;;;11.07;4.47;;;;;;;-143.48;92.56;118439.88;5053224;28;20044;-69
2022/12/28 00:24:17;;;;;;;10.52;4.68;;;;;;;-143.48;92.71;118439.88;5053060;28;20081;-69
2022/12/28 00:26:43;;;;;;;11.85;4.53;;;;;;;-143.48;92.30;118439.88;5052972;28;20500;-70
2022/12/28 00:29:08;;;;;;;9.05;4.50;;;;;;;-143.48;92.03;118439.88;5053080;28;20025;-69
2022/12/28 00:31:33;;;;;;;11.90;4.97;;;;;;;-143.48;92.42;118439.88;5053020;28;20024;-69
2022/12/28 00:33:59;;;;;;;12.18;4.65;;;;;;;-143.48;91.97;118439.88;5052881;28;20618;-68
2022/12/28 00:36:24;;;;;;;11.38;4.85;;;;;;;-143.48;92.16;118439.88;5035009;28;20110;-69
2022/12/28 00:38:50;;;;;;;14.38;5.07;;;;;;;-143.48;92.07;118439.88;5052948;28;20167;-70
2022/12/28 00:41:15;;;;;;;14.32;4.78;;;;;;;-143.48;92.16;118439.88;5052917;28;20025;-70
2022/12/28 00:43:41;;;;;;;13.35;5.25;;;;;;;-143.48;91.67;118439.88;5053051;28;20040;-70
2022/12/28 00:46:06;;;;;;;11.75;4.88;;;;;;;-143.48;91.98;118439.88;5053426;28;20549;-69
2022/12/28 00:48:31;;;;;;;11.18;4.80;;;;;;;-143.48;92.08;118439.88;5057078;28;20035;-69
2022/12/28 00:51:05;;;;;;;10.82;4.65;;;;;;;-143.48;91.55;118439.88;5056915;28;20033;-69
2022/12/28 00:53:30;;;;;;;12.35;5.20;;;;;;;-143.48;91.50;118439.88;5056908;28;20476;-69
2022/12/28 00:56:14;;;;;;;10.55;5.00;;;;;;;-143.48;91.19;118439.88;5056909;28;20071;-69
2022/12/28 00:58:40;;;;;;;12.30;5.00;;;;;;;-143.48;90.86;118439.88;5056832;28;20078;-70
2022/12/28 01:01:09;;;;;;;11.20;4.88;;;;;;;-143.48;90.92;118439.88;5056723;28;20333;-70
2022/12/28 01:03:35;;;;;;;10.50;4.35;;;;;;;-143.48;90.70;118439.88;5056972;28;20476;-70
2022/12/28 01:06:07;;;;;;;13.43;5.00;;;;;;;-143.48;91.07;118439.88;5056755;28;20017;-70
2022/12/28 01:08:37;;;;;;;13.10;4.78;;;;;;;-143.48;90.64;118439.88;5056692;28;20031;-69
2022/12/28 01:11:11;;;;;;;10.90;5.15;;;;;;;-143.48;90.95;118439.88;5056594;28;20480;-70
2022/12/28 01:13:37;;;;;;;12.02;4.63;;;;;;;-143.48;90.66;118439.88;5038576;28;20123;-69
2022/12/28 01:16:19;;;;;;;14.25;5.50;;;;;;;-143.48;91.03;118439.88;5056536;28;20457;-70
2022/12/28 01:18:45;;;;;;;9.07;4.47;;;;;;;-143.48;90.86;118439.88;5056519;28;20029;-69
2022/12/28 01:21:15;;;;;;;14.00;4.78;;;;;;;-143.48;90.84;118439.88;5056464;28;20027;-69
2022/12/28 01:23:41;;;;;;;11.13;4.80;;;;;;;-143.48;90.42;118439.88;5056384;28;20025;-69
2022/12/28 01:26:07;;;;;;;12.23;4.97;;;;;;;-143.48;90.50;118439.88;5056201;28;20095;-69
2022/12/28 01:28:32;;;;;;;11.23;4.88;;;;;;;-143.48;90.87;118439.88;5056336;28;20083;-70
2022/12/28 01:31:07;;;;;;;9.85;4.85;;;;;;;-143.48;90.36;118439.88;5056460;28;20457;-69
2022/12/28 01:33:32;;;;;;;9.48;5.10;;;;;;;-143.48;90.35;118439.88;5056259;28;20028;-69
2022/12/28 01:35:58;;;;;;;12.70;5.00;;;;;;;-143.48;90.11;118439.88;5055988;28;20427;-69
2022/12/28 01:38:23;;;;;;;13.82;5.18;;;;;;;-143.48;89.29;118439.88;5056080;28;20071;-69
2022/12/28 01:40:48;;;;;;;9.43;5.15;;;;;;;-143.48;89.56;118439.88;5056150;28;20048;-69
2022/12/28 01:43:14;;;;;;;10.18;4.60;;;;;;;-143.48;88.76;118439.88;5038442;28;20055;-70
2022/12/28 01:45:46;;;;;;;13.65;5.00;;;;;;;-143.48;88.81;118439.88;5056045;28;20099;-69
2022/12/28 01:48:21;;;;;;;13.30;5.28;;;;;;;-143.48;88.35;118439.88;5056069;28;20032;-69
2022/12/28 01:50:48;;;;;;;14.02;5.30;;;;;;;-143.48;88.52;118439.88;5055958;28;20040;-70
2022/12/28 01:53:15;;;;;;;10.43;5.10;;;;;;;-143.48;88.53;118439.88;5055820;28;20025;-69
2022/12/28 01:55:41;;;;;;;9.85;4.93;;;;;;;-143.48;88.28;118439.88;5055842;28;20024;-69
2022/12/28 01:58:11;;;;;;;9.35;4.72;;;;;;;-143.48;87.83;118439.88;5037722;28;20028;-69
2022/12/28 02:00:38;;;;;;;9.30;5.03;;;;;;;-143.48;87.94;118439.88;5055709;28;20127;-69
2022/12/28 02:03:10;;;;;;;9.95;4.85;;;;;;;-143.48;87.86;118439.88;5055562;28;20028;-68
2022/12/28 02:05:39;;;;;;;10.55;5.07;;;;;;;-143.48;87.63;118439.88;5055522;28;20086;-69
2022/12/28 02:08:13;;;;;;;10.00;4.95;;;;;;;-143.48;87.52;118439.88;5055509;28;20076;-69
2022/12/28 02:10:40;;;;;;;11.82;5.20;;;;;;;-143.48;87.34;118439.88;5055539;28;20057;-69
2022/12/28 02:13:06;;;;;;;9.68;4.95;;;;;;;-143.48;87.42;118439.88;5055497;28;20024;-69
2022/12/28 02:15:31;;;;;;;14.63;5.45;;;;;;;-143.48;88.02;118439.88;5037564;28;20155;-69
2022/12/28 02:17:57;;;;;;;11.10;5.32;;;;;;;-143.48;87.72;118439.88;5037564;28;20060;-70
2022/12/28 02:20:31;;;;;;;11.25;5.13;;;;;;;-143.48;87.74;118439.88;5055280;28;20060;-69
2022/12/28 02:23:26;;;;;;;11.70;5.50;;;;;;;-143.48;87.00;118439.88;5055238;28;20036;-69
2022/12/28 02:26:18;;;;;;;10.75;5.68;;;;;;;-143.48;87.62;118439.88;5055162;28;20432;-69
2022/12/28 02:29:08;;;;;;;10.45;5.10;;;;;;;-143.48;87.38;118439.88;5055178;28;20044;-69
2022/12/28 02:31:46;;;;;;;10.93;4.93;;;;;;;-143.48;87.55;118439.88;5055137;28;20033;-69
2022/12/28 02:34:26;;;;;;;10.63;5.45;;;;;;;-143.48;87.69;118439.88;5037068;28;20388;-69
2022/12/28 02:36:58;;;;;;;10.65;5.70;;;;;;;-143.48;88.13;118439.88;5037165;28;20025;-69
2022/12/28 02:39:36;;;;;;;14.07;6.50;;;;;;;-143.48;88.12;118439.88;5037130;28;20439;-70
2022/12/28 02:42:03;;;;;;;10.35;5.95;;;;;;;-143.48;88.87;118439.88;5054924;28;20035;-69
2022/12/28 02:50:06;;;;;;;11.05;5.75;;;;;;;-143.48;89.59;118439.88;5055101;28;20102;-69
2022/12/28 02:52:47;;;;;;;9.90;6.00;;;;;;;-143.48;90.01;118439.88;5036861;28;20021;-69
2022/12/28 02:58:46;;;;;;;13.40;6.32;;;;;;;-143.48;90.82;118439.88;5054875;28;20511;-69
2022/12/28 03:01:23;;;;;;;12.75;6.82;;;;;;;-143.48;90.95;118439.88;5054642;28;20028;-70
2022/12/28 03:04:03;;;;;;;10.55;6.40;;;;;;;-143.48;92.23;118439.88;5054562;28;20018;-70
2022/12/28 03:09:40;;;;;;;12.25;6.28;;;;;;;-143.48;93.13;118439.88;5054237;28;20039;-69
2022/12/28 03:12:18;;;;;;;11.07;6.55;;;;;;;-143.48;93.35;118439.88;5054399;28;20142;-70
2022/12/28 03:14:59;;;;;;;10.90;6.90;;;;;;;-143.48;93.68;118439.88;5054284;28;20037;-69
2022/12/28 03:31:31;;;;;;;14.43;7.32;;;;;;;-143.48;96.44;118439.88;5054020;28;20031;-69
2022/12/28 03:34:05;;;;;;;14.15;7.38;;;;;;;-143.48;95.95;118439.88;5054032;28;20154;-69
2022/12/28 03:36:46;;;;;;;10.65;7.82;;;;;;;-143.48;96.49;118439.88;5053890;28;20029;-69
2022/12/28 03:39:38;;;;;;;12.18;7.53;;;;;;;-143.48;96.89;118439.88;5053852;28;20033;-70
2022/12/28 03:44:59;;;;;;;12.80;7.57;;;;;;;-143.48;96.75;118439.88;5054196;28;20392;-69
2022/12/28 03:47:27;;;;;;;13.75;7.93;;;;;;;-143.48;96.73;118439.88;5053677;28;20052;-70
2022/12/28 03:49:53;;;;;;;14.27;8.00;;;;;;;-143.48;97.34;118439.88;5053553;28;20392;-70
2022/12/28 03:52:18;;;;;;;13.20;7.32;;;;;;;-143.48;97.48;118439.88;5053528;28;20025;-70
2022/12/28 03:54:43;;;;;;;11.38;7.20;;;;;;;-143.48;97.85;118439.88;5053455;28;20124;-69
2022/12/28 03:57:09;;;;;;;10.23;7.07;;;;;;;-143.48;97.59;118439.88;5053372;28;20445;-69
2022/12/28 03:59:34;;;;;;;12.25;7.00;;;;;;;-143.48;98.03;118439.88;5053537;28;20135;-70
2022/12/28 04:01:59;;;;;;;11.52;7.15;;;;;;;-143.48;98.06;118439.88;5053368;28;20051;-70
2022/12/28 04:04:25;;;;;;;10.35;6.60;;;;;;;-143.48;97.82;118439.88;5053519;28;20036;-70
2022/12/28 04:06:50;;;;;;;15.23;7.20;;;;;;;-143.48;97.93;118439.88;5053420;28;20032;-70
2022/12/28 04:09:15;;;;;;;14.07;7.10;;;;;;;-143.48;97.89;118439.88;5053420;28;20155;-70
2022/12/28 04:11:40;;;;;;;11.27;6.88;;;;;;;-143.48;97.66;118439.88;5053232;28;20024;-68
2022/12/28 04:14:06;;;;;;;10.88;6.70;;;;;;;-143.48;97.51;118439.88;5053274;28;20025;-70
2022/12/28 04:16:31;;;;;;;10.63;6.43;;;;;;;-143.48;97.34;118439.88;5053379;28;20472;-70
2022/12/28 04:18:56;;;;;;;13.45;6.97;;;;;;;-143.48;96.60;118439.88;5053301;28;20031;-70
2022/12/28 04:21:22;;;;;;;9.90;6.07;;;;;;;-143.48;96.30;118439.88;5052362;28;20057;-70
2022/12/28 04:23:47;;;;;;;10.48;6.18;;;;;;;-143.48;95.90;118439.88;5053224;28;20020;-70
2022/12/28 04:26:14;;;;;;;8.98;5.60;;;;;;;-143.48;95.80;118439.88;5053123;28;20037;-70
2022/12/28 04:28:40;;;;;;;9.90;5.97;;;;;;;-143.48;95.33;118439.88;5053170;28;20522;-70
2022/12/28 04:31:08;;;;;;;12.55;5.95;;;;;;;-143.48;95.28;118439.88;5053012;28;20488;-70
2022/12/28 04:33:35;;;;;;;11.80;5.95;;;;;;;-143.48;95.42;118439.88;5035151;28;20021;-70
2022/12/28 04:36:12;;;;;;;10.20;5.78;;;;;;;-143.48;95.04;118439.88;5052969;28;20064;-70
2022/12/28 04:38:38;;;;;;;11.57;5.63;;;;;;;-143.48;95.42;118439.88;5053020;28;20091;-70
2022/12/28 04:41:05;;;;;;;8.82;5.10;;;;;;;-143.48;95.83;118439.88;5053054;28;20476;-69
2022/12/28 04:43:32;;;;;;;9.73;5.47;;;;;;;-143.48;95.59;118439.88;5052797;28;20036;-71
2022/12/28 04:46:03;;;;;;;8.23;5.40;;;;;;;-143.48;96.60;118439.88;5052983;28;20062;-70
2022/12/28 04:48:29;;;;;;;9.27;6.00;;;;;;;-143.48;96.52;118439.88;5052861;28;20033;-70
2022/12/28 04:50:56;;;;;;;11.07;5.63;;;;;;;-143.48;96.37;118439.88;5052941;28;20150;-70
2022/12/28 04:53:21;;;;;;;10.30;5.57;;;;;;;-143.48;96.56;118439.88;5052812;28;20017;-68
2022/12/28 04:55:47;;;;;;;11.82;5.55;;;;;;;-143.48;96.88;118439.88;5052743;28;20047;-70
2022/12/28 04:58:12;;;;;;;9.20;5.47;;;;;;;-143.48;96.44;118439.88;5052826;28;20029;-70
2022/12/28 05:00:38;;;;;;;10.13;5.30;;;;;;;-143.48;96.78;118439.88;5052832;28;20488;-70
2022/12/28 05:03:04;;;;;;;13.68;5.30;;;;;;;-143.48;96.86;118439.88;5052819;28;20029;-70
2022/12/28 05:05:30;;;;;;;8.15;5.07;;;;;;;-143.48;96.70;118439.88;5052715;28;20542;-70
2022/12/28 05:07:59;;;;;;;11.85;5.03;;;;;;;-143.48;96.82;118439.88;5052708;28;20473;-70
2022/12/28 05:10:24;;;;;;;10.25;5.07;;;;;;;-143.48;96.65;118439.88;5052632;28;20029;-68
2022/12/28 05:12:50;;;;;;;11.05;5.15;;;;;;;-143.48;96.98;118439.88;5052709;28;20071;-69
2022/12/28 05:15:15;;;;;;;9.05;5.20;;;;;;;-143.48;96.86;118439.88;5052462;28;20027;-68
2022/12/28 05:17:40;;;;;;;8.25;4.80;;;;;;;-143.48;96.68;118439.88;5034741;28;20102;-68
2022/12/28 05:20:06;;;;;;;9.68;5.00;;;;;;;-143.48;96.89;118439.88;5052750;28;20403;-68
2022/12/28 05:22:31;;;;;;;11.48;4.60;;;;;;;-143.48;96.36;118439.88;5052792;28;20033;-68
2022/12/28 05:24:56;;;;;;;13.43;5.20;;;;;;;-143.48;96.08;118439.88;5052448;28;20087;-68
2022/12/28 05:27:22;;;;;;;6.63;4.28;;;;;;;-143.48;96.02;118439.88;5052555;28;20051;-69
2022/12/28 05:29:47;;;;;;;8.98;4.28;;;;;;;-143.48;95.86;118439.88;5052549;28;20036;-69
2022/12/28 05:32:12;;;;;;;11.43;4.13;;;;;;;-143.48;95.83;118439.88;5053220;28;20082;-69
2022/12/28 05:34:38;;;;;;;8.80;4.00;;;;;;;-143.48;95.88;118439.88;5038280;28;20112;-69
2022/12/28 05:37:03;;;;;;;9.63;4.20;;;;;;;-143.48;95.98;118439.88;5038247;28;20036;-69
2022/12/28 05:39:28;;;;;;;6.65;3.67;;;;;;;-143.48;96.32;118439.88;5056103;28;20030;-69
2022/12/28 05:41:58;;;;;;;7.07;3.65;;;;;;;-143.48;95.50;118439.88;5056058;28;20025;-69
2022/12/28 05:44:24;;;;;;;6.20;3.88;;;;;;;-143.48;95.26;118439.88;5056796;28;20461;-68
2022/12/28 05:46:49;;;;;;;10.30;4.13;;;;;;;-143.48;95.82;118439.88;5055956;28;20036;-69
2022/12/28 05:49:14;;;;;;;7.57;3.67;;;;;;;-143.48;95.63;118439.88;5056104;28;20427;-69
2022/12/28 05:51:40;;;;;;;9.35;3.75;;;;;;;-143.48;95.76;118439.88;5056103;28;20056;-68
2022/12/28 05:54:05;;;;;;;10.07;3.92;;;;;;;-143.48;95.36;118439.88;5055913;28;20115;-68
2022/12/28 05:56:31;;;;;;;6.75;3.47;;;;;;;-143.48;95.70;118439.88;5055763;28;20107;-68
2022/12/28 05:58:59;;;;;;;6.55;3.30;;;;;;;-143.48;95.40;118439.88;5055928;28;20536;-68
2022/12/28 06:01:29;;;;;;;5.40;3.15;;;;;;;-143.48;95.02;118439.88;5055668;28;20387;-69
2022/12/28 06:04:00;;;;;;;8.07;3.65;;;;;;;-143.48;95.14;118439.88;5055648;28;20082;-69
2022/12/28 06:06:26;;;;;;;5.57;3.58;;;;;;;-143.48;94.88;118439.88;5037768;28;20024;-68
2022/12/28 06:08:52;;;;;;;9.40;3.53;;;;;;;-143.48;94.47;118439.88;5055576;28;20444;-69
2022/12/28 06:11:25;;;;;;;9.90;3.28;;;;;;;-143.48;94.00;118439.88;5055494;28;20104;-68
2022/12/28 06:13:51;;;;;;;7.75;3.42;;;;;;;-143.48;94.13;118439.88;5055642;28;20500;-68
2022/12/28 06:16:19;;;;;;;7.85;3.70;;;;;;;-143.48;93.97;118439.88;5055333;28;20100;-68
2022/12/28 06:18:45;;;;;;;7.53;3.72;;;;;;;-143.48;94.56;118439.88;5055362;28;20028;-68
2022/12/28 06:21:19;;;;;;;5.90;3.60;;;;;;;-143.48;93.69;118439.88;5055372;28;20017;-69
2022/12/28 06:23:45;;;;;;;10.85;4.00;;;;;;;-143.48;93.77;118439.88;5055290;28;20025;-68
2022/12/28 06:26:14;;;;;;;10.05;3.95;;;;;;;-143.48;93.69;118439.88;5055112;28;20045;-69
2022/12/28 06:28:40;;;;;;;7.72;3.78;;;;;;;-143.48;93.20;118439.88;5055196;28;20075;-68
2022/12/28 06:31:10;;;;;;;6.80;3.67;;;;;;;-143.48;93.43;118439.88;5055177;28;20107;-68
2022/12/28 06:33:35;;;;;;;7.75;3.65;;;;;;;-143.48;93.44;118439.88;5055036;28;20039;-68
2022/12/28 06:36:00;;;;;;;5.90;3.20;;;;;;;-143.48;93.71;118439.88;5055009;28;20096;-68
2022/12/28 06:38:28;;;;;;;6.65;3.50;;;;;;;-143.48;93.77;118439.88;5037199;28;20111;-68
2022/12/28 06:40:53;;;;;;;8.77;3.65;;;;;;;-143.48;93.66;118439.88;5055006;28;20021;-68
2022/12/28 06:43:19;;;;;;;8.95;3.67;;;;;;;-143.48;94.12;118439.88;5054593;28;20044;-68
2022/12/28 06:45:54;;;;;;;7.43;4.13;;;;;;;-143.48;94.21;118439.88;5054340;28;20028;-68
2022/12/28 06:48:19;;;;;;;5.05;3.45;;;;;;;-143.48;94.17;118439.88;5054914;28;20032;-68
2022/12/28 06:51:11;;;;;;;10.23;3.83;;;;;;;-143.48;94.90;118439.88;5054791;28;20021;-69
2022/12/28 06:53:37;;;;;;;9.63;3.58;;;;;;;-143.48;95.42;118439.88;5054707;28;20024;-69
2022/12/28 06:56:11;;;;;;;6.00;3.70;;;;;;;-143.48;95.80;118439.88;5054763;28;20040;-68
2022/12/28 06:58:37;;;;;;;5.38;3.65;;;;;;;-143.48;95.51;118439.88;5054610;28;20583;-69
2022/12/28 07:01:21;;;;;;;9.55;3.60;;;;;;;-143.48;95.49;118439.88;5054505;28;20063;-69
2022/12/28 07:03:47;;;;;;;9.00;3.80;;;;;;;-143.48;95.16;118439.88;5054491;28;20079;-69
2022/12/28 07:06:15;;;;;;;6.65;3.40;;;;;;;-143.48;95.67;118439.88;5054570;28;20582;-69
2022/12/28 07:08:42;;;;;;;7.68;3.60;;;;;;;-143.48;96.13;118439.88;5054456;28;20493;-69
2022/12/28 07:11:15;;;;;;;7.60;3.17;;;;;;;-143.48;96.67;118439.88;5036491;28;20112;-69
2022/12/28 07:13:41;;;;;;;9.30;4.50;;;;;;;-143.48;96.38;118439.88;5054337;28;20384;-69
2022/12/28 07:16:10;;;;;;;5.45;3.50;;;;;;;-143.48;96.93;118439.88;5054140;28;20038;-69
2022/12/28 07:18:36;;;;;;;9.13;3.65;;;;;;;-143.48;97.36;118439.88;5054394;28;20032;-69
2022/12/28 07:21:09;;;;;;;5.05;3.58;;;;;;;-143.48;97.48;118439.88;5036272;28;20025;-69
2022/12/28 07:23:34;;;;;;;6.53;3.88;;;;;;;-143.48;97.48;118439.88;5054145;28;20053;-69
2022/12/28 07:26:11;;;;;;;8.60;3.83;;;;;;;-143.48;97.58;118439.88;5054014;28;20124;-69
2022/12/28 07:28:39;;;;;;;8.68;3.50;;;;;;;-143.48;97.51;118439.88;5053904;28;20384;-69
2022/12/28 07:31:13;;;;;;;5.95;3.55;;;;;;;-143.48;97.39;118439.88;5036168;28;20024;-69
2022/12/28 07:33:39;;;;;;;7.85;3.55;;;;;;;-143.48;97.77;118439.88;5054058;28;20024;-69
2022/12/28 07:36:08;;;;;;;8.73;3.63;;;;;;;-143.48;97.38;118439.88;5036036;28;20029;-69
2022/12/28 07:38:34;;;;;;;6.32;3.10;;;;;;;-143.48;97.27;118439.88;5035879;28;20426;-69
2022/12/28 07:41:05;;;;;;;7.75;4.15;;;;;;;-143.48;97.27;118439.88;5035909;28;20021;-69
2022/12/28 07:43:31;;;;;;;7.13;3.38;;;;;;;-143.48;97.14;118439.88;5053878;28;20032;-69
2022/12/28 07:46:26;;;;;;;7.93;3.55;;;;;;;-143.48;96.75;118439.88;5053795;28;20033;-69
2022/12/28 07:48:52;;;;;;;6.60;3.40;;;;;;;-143.48;96.40;118439.88;5035750;28;20384;-69
2022/12/28 07:51:21;;;;;;;6.78;3.40;;;;;;;-143.48;96.57;118439.88;5053785;28;20025;-69
2022/12/28 07:53:48;;;;;;;7.40;3.40;;;;;;;-143.48;96.63;118439.88;5053584;28;20507;-69
2022/12/28 07:56:14;;;;;;;7.05;3.47;;;;;;;-143.48;95.97;118439.88;5053453;28;20025;-68
2022/12/28 07:58:40;;;;;;;6.68;3.42;;;;;;;-143.48;95.56;118439.88;5035893;28;20032;-69
2022/12/28 08:01:07;;;;;;;7.53;3.47;;;;;;;-143.48;95.26;118439.88;5053314;28;20037;-68
2022/12/28 08:03:33;;;;;;;6.95;3.50;;;;;;;-143.48;95.34;118439.88;5053609;28;20036;-69
2022/12/28 08:06:21;;;;;;;5.47;3.35;;;;;;;-143.48;95.98;118439.88;5053330;28;20104;-68
2022/12/28 08:08:48;;;;;;;5.53;3.25;;;;;;;-143.48;96.17;118439.88;5053120;28;20033;-69
2022/12/28 08:11:20;;;;;;;5.15;3.50;;;;;;;-143.48;96.19;118439.88;5053433;28;20519;-69
2022/12/28 08:13:48;;;;;;;6.53;3.42;;;;;;;-143.48;95.92;118439.88;5035750;28;20064;-68
2022/12/28 08:16:15;;;;;;;6.38;3.42;;;;;;;-143.48;95.77;118439.88;5052672;28;20434;-68
2022/12/28 08:18:40;;;;;;;7.00;3.60;;;;;;;-143.48;95.62;118439.88;5051640;28;20024;-69
2022/12/28 08:21:17;;;;;;;6.65;3.42;;;;;;;-143.48;95.38;118439.88;5052200;28;20025;-68
2022/12/28 08:23:42;;;;;;;6.40;3.42;;;;;;;-143.48;95.70;118439.88;5050718;28;20060;-69
2022/12/28 08:26:12;;;;;;;7.47;3.40;;;;;;;-143.48;95.68;118439.88;5051062;28;20568;-69
2022/12/28 08:28:38;;;;;;;5.93;3.13;;;;;;;-143.48;95.80;118439.88;5032573;28;20020;-69
2022/12/28 08:31:06;;;;;;;4.78;3.40;;;;;;;-143.48;95.88;118439.88;5050023;28;20036;-69
2022/12/28 08:33:31;;;;;;;9.75;3.92;;;;;;;-143.48;95.85;118439.88;5051152;28;20027;-69
2022/12/28 08:35:57;;;;;;;7.72;3.50;;;;;;;-143.48;95.72;118439.88;5051209;28;20021;-69
2022/12/28 08:38:22;;;;;;;5.85;3.20;;;;;;;-143.48;95.80;118439.88;5051198;28;20098;-68
2022/12/28 08:40:58;;;;;;;7.10;3.80;;;;;;;-143.48;95.41;118439.88;5051438;28;20025;-68
2022/12/28 08:43:25;;;;;;;6.07;3.55;;;;;;;-143.48;95.09;118439.88;5052125;28;20117;-68
2022/12/28 08:46:02;;;;;;;7.35;3.30;;;;;;;-143.48;94.32;118439.88;5052565;28;20017;-69
2022/12/28 08:48:28;;;;;;;7.60;3.35;;;;;;;-143.48;94.42;118439.88;5052977;28;20049;-69
2022/12/28 08:50:59;;;;;;;7.07;3.10;;;;;;;-143.48;94.31;118439.88;5053063;28;20029;-69
2022/12/28 08:53:24;;;;;;;7.38;3.28;;;;;;;-143.48;94.06;118439.88;5052669;28;20021;-69
2022/12/28 08:55:50;;;;;;;8.00;3.28;;;;;;;-143.48;94.12;118439.88;5052877;28;20025;-69
2022/12/28 08:58:16;;;;;;;7.03;3.70;;;;;;;-143.48;94.07;118439.88;5053732;28;20108;-69
2022/12/28 09:00:41;;;;;;;6.43;3.47;;;;;;;-143.48;94.35;118439.88;5035227;28;20031;-69
2022/12/28 09:03:06;;;;;;;4.93;3.25;;;;;;;-143.48;94.17;118439.88;5054275;28;20108;-69
2022/12/28 09:05:37;;;;;;;8.95;3.67;;;;;;;-143.48;94.47;118439.88;5035925;28;20020;-69
2022/12/28 09:08:03;;;;;;;8.63;3.45;;;;;;;-143.48;94.32;118439.88;5038281;28;20048;-69
2022/12/28 09:10:28;;;;;;;6.07;3.28;;;;;;;-143.48;94.00;118439.88;5056789;28;20032;-69
2022/12/28 09:12:58;;;;;;;11.32;3.70;;;;;;;-143.48;94.00;118439.88;5058860;28;20403;-69
2022/12/28 09:15:23;;;;;;;4.80;3.35;;;;;;;-143.48;93.49;118439.88;5057751;28;20063;-69
2022/12/28 09:17:49;;;;;;;7.03;3.67;;;;;;;-143.48;93.07;118439.88;5056683;28;20025;-69
2022/12/28 09:20:14;;;;;;;8.90;4.00;;;;;;;-143.48;93.04;118439.88;5056626;28;20055;-69
2022/12/28 09:22:39;;;;;;;6.78;3.95;;;;;;;-143.48;92.73;118439.88;5056798;28;20017;-69
2022/12/28 09:25:05;;;;;;;8.75;3.97;;;;;;;-143.48;92.21;118439.88;5038592;28;20044;-69
2022/12/28 09:27:30;;;;;;;6.15;4.28;;;;;;;-143.48;92.10;118439.88;5038573;28;20033;-69
2022/12/28 09:29:55;;;;;;;6.05;4.15;;;;;;;-143.48;92.11;118439.88;5056473;28;20331;-69
2022/12/28 09:32:21;;;;;;;8.90;4.93;;;;;;;-143.48;93.35;118439.88;5056413;28;20021;-69
2022/12/28 09:34:46;;;;;;;12.75;4.97;;;;;;;-143.48;94.49;118439.88;5056203;28;20032;-69
2022/12/28 09:37:11;;;;;;;9.20;5.65;;;;;;;-143.48;95.76;118439.88;5056241;28;20029;-69
2022/12/28 09:39:36;;;;;;;10.57;5.63;;;;;;;-143.48;96.20;118439.88;5056306;28;20452;-69
2022/12/28 09:42:17;;;;;;;9.82;5.97;;;;;;;-143.48;96.55;118439.88;5056261;28;20025;-69
2022/12/28 09:44:46;;;;;;;9.88;5.60;;;;;;;-143.48;96.87;118439.88;5056140;28;20029;-69
2022/12/28 09:47:21;;;;;;;7.43;5.90;;;;;;;-143.48;97.30;118439.88;5056171;28;20025;-69
2022/12/28 09:49:58;;;;;;;9.02;6.00;;;;;;;-143.48;97.88;118439.88;5056291;28;20396;-69
2022/12/28 09:52:29;;;;;;;15.20;5.90;;;;;;;-143.48;98.19;118439.88;5056036;28;20052;-69
2022/12/28 09:54:59;;;;;;;9.13;5.40;;;;;;;-143.48;98.08;118439.88;5055856;28;20079;-69
2022/12/28 09:57:35;;;;;;;10.00;5.65;;;;;;;-143.48;97.57;118439.88;5055924;28;20143;-69
2022/12/28 10:00:01;;;;;;;8.38;5.45;;;;;;;-143.48;96.92;118439.88;5055934;28;20029;-69
2022/12/28 10:02:33;;;;;;;10.77;5.53;;;;;;;-143.48;95.96;118439.88;5055733;28;20036;-69
2022/12/28 10:04:59;;;;;;;10.07;5.18;;;;;;;-143.48;95.73;118439.88;5055734;28;20598;-69
2022/12/28 10:07:24;;;;;;;8.90;4.85;;;;;;;-143.48;95.02;118439.88;5055700;28;20031;-70
2022/12/28 10:09:50;;;;;;;13.80;6.30;;;;;;;-143.48;94.26;118439.88;5055687;28;20040;-69
2022/12/28 10:12:19;;;;;;;13.40;7.32;;;;;;;-143.48;93.81;118439.88;5055804;28;20427;-70
2022/12/28 10:14:46;;;;;;;15.57;6.68;;;;;;;-143.48;93.02;118439.88;5038039;28;20029;-69
2022/12/28 10:17:14;;;;;;;11.38;5.20;;;;;;;-143.48;92.33;118439.88;5055111;28;20032;-70
2022/12/28 10:19:40;;;;;;;7.78;4.47;;;;;;;-143.48;92.06;118439.88;5054401;28;20029;-70
2022/12/28 10:22:34;;;;;;;11.77;5.35;;;;;;;-143.48;91.51;118439.88;5055962;28;20052;-69
2022/12/28 10:24:59;;;;;;;8.70;4.25;;;;;;;-143.48;90.73;118439.88;5055175;28;20492;-69
2022/12/28 10:27:30;;;;;;;6.78;3.60;;;;;;;-143.48;90.45;118439.88;5055283;28;20078;-69
2022/12/28 10:30:00;;;;;;;9.73;3.97;;;;;;;-143.48;89.58;118439.88;5055257;28;20077;-69
2022/12/28 10:32:25;;;;;;;7.18;3.25;;;;;;;-143.48;89.52;118439.88;5055235;28;20396;-69
2022/12/28 10:34:57;;;;;;;10.50;3.65;;;;;;;-143.48;89.79;118439.88;5055287;28;20031;-68
2022/12/28 10:37:24;;;;;;;10.63;3.30;;;;;;;-143.48;89.34;118439.88;5055086;28;20052;-68
2022/12/28 10:39:58;;;;;;;6.95;2.92;;;;;;;-143.48;89.38;118439.88;5054990;28;20362;-69
2022/12/28 10:42:33;;;;;;;5.75;3.10;;;;;;;-143.48;89.20;118439.88;5055107;28;20032;-69
2022/12/28 10:45:05;;;;;;;9.80;5.47;;;;;;;-143.48;89.42;118439.88;5037229;28;20384;-69
2022/12/28 10:47:34;;;;;;;10.90;4.05;;;;;;;-143.48;88.97;118439.88;5054986;28;20104;-69
2022/12/28 10:50:00;;;;;;;7.57;3.30;;;;;;;-143.48;89.47;118439.88;5054874;28;20025;-69
2022/12/28 10:52:27;;;;;;;6.78;3.20;;;;;;;-143.48;89.72;118439.88;5054834;28;20380;-69
2022/12/28 10:54:52;;;;;;;5.38;3.45;;;;;;;-143.48;90.89;118439.88;5054896;28;20461;-68
2022/12/28 10:57:25;;;;;;;6.43;3.40;;;;;;;-143.48;91.54;118439.88;5054752;28;20028;-69
2022/12/28 10:59:51;;;;;;;9.88;3.67;;;;;;;-143.48;92.47;118439.88;5054474;28;20068;-69
2022/12/28 11:02:27;;;;;;;7.85;3.58;;;;;;;-143.48;93.56;118439.88;5054236;28;20060;-69
2022/12/28 11:04:58;;;;;;;8.13;3.63;;;;;;;-143.48;95.11;118439.88;5054268;28;20027;-69
2022/12/28 11:07:34;;;;;;;5.03;3.50;;;;;;;-143.48;95.86;118439.88;5053880;28;20320;-69
2022/12/28 11:10:26;;;;;;;8.38;4.60;;;;;;;-143.48;96.86;118439.88;5053113;28;20021;-69
2022/12/28 11:12:54;;;;;;;9.07;4.50;;;;;;;-143.48;97.87;118439.88;5054192;28;20029;-69
2022/12/28 11:15:23;;;;;;;8.15;4.40;;;;;;;-143.48;97.91;118439.88;5054292;28;20078;-70
2022/12/28 11:17:54;;;;;;;7.25;4.30;;;;;;;-143.48;97.58;118439.88;5054187;28;20029;-69
2022/12/28 11:20:23;;;;;;;7.82;3.90;;;;;;;-143.48;97.91;118439.88;5053187;28;20346;-69
2022/12/28 11:22:50;;;;;;;8.90;4.32;;;;;;;-143.48;98.36;118439.88;5054319;28;20025;-69
2022/12/28 11:25:24;;;;;;;8.00;4.18;;;;;;;-143.48;98.60;118439.88;5053911;28;20044;-69
2022/12/28 11:27:49;;;;;;;10.15;4.03;;;;;;;-143.48;98.55;118439.88;5054273;28;20036;-69
2022/12/28 11:30:16;;;;;;;9.02;4.43;;;;;;;-143.48;98.37;118439.88;5053644;28;20025;-70
2022/12/28 11:32:49;;;;;;;8.23;4.40;;;;;;;-143.48;98.01;118439.88;5054053;28;20028;-70
2022/12/28 11:35:18;;;;;;;7.28;3.90;;;;;;;-143.48;97.43;118439.88;5053858;28;20017;-69
2022/12/28 11:37:58;;;;;;;8.52;4.07;;;;;;;-143.48;97.50;118439.88;5053920;28;20028;-70
2022/12/28 11:40:42;;;;;;;4.95;3.63;;;;;;;-143.48;97.78;118439.88;5053913;28;20464;-70
2022/12/28 11:43:27;;;;;;;8.20;3.65;;;;;;;-143.48;97.11;118439.88;5053938;28;20554;-70
2022/12/28 11:45:54;;;;;;;5.95;3.70;;;;;;;-143.48;96.84;118439.88;5035711;28;20170;-70